sensor_id;sensor_type;location;lat;lon;timestamp;temperature;humidity
18884;DHT22;9574;47.282;9.640;2022-10-31T00:00:14;11.30;99.90
18884;DHT22;9574;47.282;9.640;2022-10-31T00:02:42;11.20;99.90
18884;DHT22;9574;47.282;9.640;2022-10-31T00:05:09;11.20;99.90
18884;DHT22;9574;47.282;9.640;2022-10-31T00:07:36;11.30;99.90
18884;DHT22;9574;47.282;9.640;2022-10-31T00:10:04;11.30;99.90
18884;DHT22;9574;47.282;9.640;2022-10-31T00:12:32;11.30;99.90
18884;DHT22;9574;47.282;9.640;2022-10-31T00:14:59;11.30;99.90
18884;DHT22;9574;47.282;9.640;2022-10-31T00:17:26;11.30;99.90
18884;DHT22;9574;47.282;9.640;2022-10-31T00:19:53;11.20;99.90
18884;DHT22;9574;47.282;9.640;2022-10-31T00:22:20;11.10;99.90
18884;DHT22;9574;47.282;9.640;2022-10-31T00:24:47;11.10;99.90
18884;DHT22;9574;47.282;9.640;2022-10-31T00:27:14;11.10;99.90
18884;DHT22;9574;47.282;9.640;2022-10-31T00:29:42;11.00;99.90
18884;DHT22;9574;47.282;9.640;2022-10-31T00:32:09;10.90;99.90
18884;DHT22;9574;47.282;9.640;2022-10-31T00:34:36;10.90;99.90
18884;DHT22;9574;47.282;9.640;2022-10-31T00:37:03;10.90;99.90
18884;DHT22;9574;47.282;9.640;2022-10-31T00:39:30;10.90;99.90
18884;DHT22;9574;47.282;9.640;2022-10-31T00:41:57;10.90;99.90
18884;DHT22;9574;47.282;9.640;2022-10-31T00:44:24;10.90;99.90
18884;DHT22;9574;47.282;9.640;2022-10-31T00:46:52;10.90;99.90
18884;DHT22;9574;47.282;9.640;2022-10-31T00:49:19;10.80;99.90
18884;DHT22;9574;47.282;9.640;2022-10-31T00:51:46;10.70;99.90
18884;DHT22;9574;47.282;9.640;2022-10-31T00:54:13;10.70;99.90
18884;DHT22;9574;47.282;9.640;2022-10-31T00:56:40;10.70;99.90
18884;DHT22;9574;47.282;9.640;2022-10-31T00:59:07;11.00;99.90
18884;DHT22;9574;47.282;9.640;2022-10-31T01:01:34;11.10;99.90
18884;DHT22;9574;47.282;9.640;2022-10-31T01:04:02;11.00;99.90
18884;DHT22;9574;47.282;9.640;2022-10-31T01:06:29;11.00;99.90
18884;DHT22;9574;47.282;9.640;2022-10-31T01:08:56;11.00;99.90
18884;DHT22;9574;47.282;9.640;2022-10-31T01:11:23;11.20;99.90
18884;DHT22;9574;47.282;9.640;2022-10-31T01:13:51;11.20;99.90
18884;DHT22;9574;47.282;9.640;2022-10-31T01:16:20;11.20;99.90
18884;DHT22;9574;47.282;9.640;2022-10-31T01:18:48;11.10;99.90
18884;DHT22;9574;47.282;9.640;2022-10-31T01:21:18;11.00;99.90
18884;DHT22;9574;47.282;9.640;2022-10-31T01:23:45;10.90;99.90
18884;DHT22;9574;47.282;9.640;2022-10-31T01:26:14;10.90;99.90
18884;DHT22;9574;47.282;9.640;2022-10-31T01:28:48;10.80;99.90
18884;DHT22;9574;47.282;9.640;2022-10-31T01:31:21;10.70;99.90
18884;DHT22;9574;47.282;9.640;2022-10-31T01:33:50;10.60;99.90
18884;DHT22;9574;47.282;9.640;2022-10-31T01:36:20;10.50;99.90
18884;DHT22;9574;47.282;9.640;2022-10-31T01:38:48;10.50;99.90
18884;DHT22;9574;47.282;9.640;2022-10-31T01:41:21;10.90;99.90
18884;DHT22;9574;47.282;9.640;2022-10-31T01:43:50;10.80;99.90
18884;DHT22;9574;47.282;9.640;2022-10-31T01:46:21;11.00;99.90
18884;DHT22;9574;47.282;9.640;2022-10-31T01:48:51;10.80;99.90
18884;DHT22;9574;47.282;9.640;2022-10-31T01:51:22;10.80;99.90
18884;DHT22;9574;47.282;9.640;2022-10-31T01:53:52;10.90;99.90
18884;DHT22;9574;47.282;9.640;2022-10-31T01:56:21;10.80;99.90
18884;DHT22;9574;47.282;9.640;2022-10-31T01:58:48;10.60;99.90
18884;DHT22;9574;47.282;9.640;2022-10-31T02:01:16;10.40;99.90
18884;DHT22;9574;47.282;9.640;2022-10-31T02:03:45;10.40;99.90
18884;DHT22;9574;47.282;9.640;2022-10-31T02:06:21;10.40;99.90
18884;DHT22;9574;47.282;9.640;2022-10-31T02:08:50;10.40;99.90
18884;DHT22;9574;47.282;9.640;2022-10-31T02:11:18;10.70;99.90
18884;DHT22;9574;47.282;9.640;2022-10-31T02:13:45;10.70;99.90
18884;DHT22;9574;47.282;9.640;2022-10-31T02:16:13;10.60;99.90
18884;DHT22;9574;47.282;9.640;2022-10-31T02:18:40;10.50;99.90
18884;DHT22;9574;47.282;9.640;2022-10-31T02:21:14;10.40;99.90
18884;DHT22;9574;47.282;9.640;2022-10-31T02:26:52;10.30;99.90
18884;DHT22;9574;47.282;9.640;2022-10-31T02:32:31;10.20;99.90
18884;DHT22;9574;47.282;9.640;2022-10-31T02:35:10;10.00;99.90
18884;DHT22;9574;47.282;9.640;2022-10-31T02:37:45;10.00;99.90
18884;DHT22;9574;47.282;9.640;2022-10-31T02:40:17;10.10;99.90
18884;DHT22;9574;47.282;9.640;2022-10-31T02:42:51;10.10;99.90
18884;DHT22;9574;47.282;9.640;2022-10-31T02:45:25;10.20;99.90
18884;DHT22;9574;47.282;9.640;2022-10-31T02:47:59;10.20;99.90
18884;DHT22;9574;47.282;9.640;2022-10-31T02:50:29;10.20;99.90
18884;DHT22;9574;47.282;9.640;2022-10-31T02:52:57;10.10;99.90
18884;DHT22;9574;47.282;9.640;2022-10-31T02:55:49;10.00;99.90
18884;DHT22;9574;47.282;9.640;2022-10-31T02:58:20;10.10;99.90
18884;DHT22;9574;47.282;9.640;2022-10-31T03:00:58;10.00;99.90
18884;DHT22;9574;47.282;9.640;2022-10-31T03:03:31;10.10;99.90
18884;DHT22;9574;47.282;9.640;2022-10-31T03:06:03;10.00;99.90
18884;DHT22;9574;47.282;9.640;2022-10-31T03:08:37;10.10;99.90
18884;DHT22;9574;47.282;9.640;2022-10-31T03:11:08;10.20;99.90
18884;DHT22;9574;47.282;9.640;2022-10-31T03:13:40;10.10;99.90
18884;DHT22;9574;47.282;9.640;2022-10-31T03:16:11;10.10;99.90
18884;DHT22;9574;47.282;9.640;2022-10-31T03:18:46;10.10;99.90
18884;DHT22;9574;47.282;9.640;2022-10-31T03:21:14;10.20;99.90
18884;DHT22;9574;47.282;9.640;2022-10-31T03:23:44;10.20;99.90
18884;DHT22;9574;47.282;9.640;2022-10-31T03:26:14;10.20;99.90
18884;DHT22;9574;47.282;9.640;2022-10-31T03:28:44;10.20;99.90
18884;DHT22;9574;47.282;9.640;2022-10-31T03:31:17;10.20;99.90
18884;DHT22;9574;47.282;9.640;2022-10-31T03:33:48;10.20;99.90
18884;DHT22;9574;47.282;9.640;2022-10-31T03:36:17;10.10;99.90
18884;DHT22;9574;47.282;9.640;2022-10-31T03:38:46;10.10;99.90
18884;DHT22;9574;47.282;9.640;2022-10-31T03:41:17;10.10;99.90
18884;DHT22;9574;47.282;9.640;2022-10-31T03:43:51;10.20;99.90
18884;DHT22;9574;47.282;9.640;2022-10-31T03:46:19;10.50;99.90
18884;DHT22;9574;47.282;9.640;2022-10-31T03:48:48;10.40;99.90
18884;DHT22;9574;47.282;9.640;2022-10-31T03:51:18;10.20;99.90
18884;DHT22;9574;47.282;9.640;2022-10-31T03:53:54;10.10;99.90
18884;DHT22;9574;47.282;9.640;2022-10-31T03:56:26;10.00;99.90
18884;DHT22;9574;47.282;9.640;2022-10-31T03:59:00;10.20;99.90
18884;DHT22;9574;47.282;9.640;2022-10-31T04:01:30;10.00;99.90
18884;DHT22;9574;47.282;9.640;2022-10-31T04:04:00;9.90;99.90
18884;DHT22;9574;47.282;9.640;2022-10-31T04:06:30;9.80;99.90
18884;DHT22;9574;47.282;9.640;2022-10-31T04:09:00;9.80;99.90
18884;DHT22;9574;47.282;9.640;2022-10-31T04:11:30;9.80;99.90
18884;DHT22;9574;47.282;9.640;2022-10-31T04:14:00;9.70;99.90
18884;DHT22;9574;47.282;9.640;2022-10-31T04:16:28;9.70;99.90
18884;DHT22;9574;47.282;9.640;2022-10-31T04:18:55;9.70;99.90
18884;DHT22;9574;47.282;9.640;2022-10-31T04:21:28;9.80;99.90
18884;DHT22;9574;47.282;9.640;2022-10-31T04:23:56;9.80;99.90
18884;DHT22;9574;47.282;9.640;2022-10-31T04:26:23;9.90;99.90
18884;DHT22;9574;47.282;9.640;2022-10-31T04:28:50;9.70;99.90
18884;DHT22;9574;47.282;9.640;2022-10-31T04:31:17;9.70;99.90
18884;DHT22;9574;47.282;9.640;2022-10-31T04:33:44;9.70;99.90
18884;DHT22;9574;47.282;9.640;2022-10-31T04:36:11;9.60;99.90
18884;DHT22;9574;47.282;9.640;2022-10-31T04:38:39;9.40;99.90
18884;DHT22;9574;47.282;9.640;2022-10-31T04:41:06;9.40;99.90
18884;DHT22;9574;47.282;9.640;2022-10-31T04:43:33;9.50;99.90
18884;DHT22;9574;47.282;9.640;2022-10-31T04:46:00;9.90;99.90
18884;DHT22;9574;47.282;9.640;2022-10-31T04:48:27;9.60;99.90
18884;DHT22;9574;47.282;9.640;2022-10-31T04:50:58;9.50;99.90
18884;DHT22;9574;47.282;9.640;2022-10-31T04:53:26;9.40;99.90
18884;DHT22;9574;47.282;9.640;2022-10-31T04:55:54;9.40;99.90
18884;DHT22;9574;47.282;9.640;2022-10-31T04:58:21;9.30;99.90
18884;DHT22;9574;47.282;9.640;2022-10-31T05:00:51;9.30;99.90
18884;DHT22;9574;47.282;9.640;2022-10-31T05:03:18;9.40;99.90
18884;DHT22;9574;47.282;9.640;2022-10-31T05:05:45;9.40;99.90
18884;DHT22;9574;47.282;9.640;2022-10-31T05:08:12;9.30;99.90
18884;DHT22;9574;47.282;9.640;2022-10-31T05:10:40;9.30;99.90
18884;DHT22;9574;47.282;9.640;2022-10-31T05:13:08;9.20;99.90
18884;DHT22;9574;47.282;9.640;2022-10-31T05:15:36;9.10;99.90
18884;DHT22;9574;47.282;9.640;2022-10-31T05:18:03;9.20;99.90
18884;DHT22;9574;47.282;9.640;2022-10-31T05:20:30;9.40;99.90
18884;DHT22;9574;47.282;9.640;2022-10-31T05:22:58;9.30;99.90
18884;DHT22;9574;47.282;9.640;2022-10-31T05:25:26;9.20;99.90
18884;DHT22;9574;47.282;9.640;2022-10-31T05:27:55;9.20;99.90
18884;DHT22;9574;47.282;9.640;2022-10-31T05:30:25;9.20;99.90
18884;DHT22;9574;47.282;9.640;2022-10-31T05:32:52;9.20;99.90
18884;DHT22;9574;47.282;9.640;2022-10-31T05:35:22;9.20;99.90
18884;DHT22;9574;47.282;9.640;2022-10-31T05:37:49;9.20;99.90
18884;DHT22;9574;47.282;9.640;2022-10-31T05:40:17;9.10;99.90
18884;DHT22;9574;47.282;9.640;2022-10-31T05:42:45;9.30;99.90
18884;DHT22;9574;47.282;9.640;2022-10-31T05:45:14;9.50;99.90
18884;DHT22;9574;47.282;9.640;2022-10-31T05:47:50;9.40;99.90
18884;DHT22;9574;47.282;9.640;2022-10-31T05:50:17;9.30;99.90
18884;DHT22;9574;47.282;9.640;2022-10-31T05:52:44;9.10;99.90
18884;DHT22;9574;47.282;9.640;2022-10-31T05:55:11;9.00;99.90
18884;DHT22;9574;47.282;9.640;2022-10-31T05:57:38;9.10;99.90
18884;DHT22;9574;47.282;9.640;2022-10-31T06:00:06;9.00;99.90
18884;DHT22;9574;47.282;9.640;2022-10-31T06:02:33;9.00;99.90
18884;DHT22;9574;47.282;9.640;2022-10-31T06:05:01;9.10;99.90
18884;DHT22;9574;47.282;9.640;2022-10-31T06:07:32;9.50;99.90
18884;DHT22;9574;47.282;9.640;2022-10-31T06:09:59;9.50;99.90
18884;DHT22;9574;47.282;9.640;2022-10-31T06:12:26;9.40;99.90
18884;DHT22;9574;47.282;9.640;2022-10-31T06:14:53;9.50;99.90
18884;DHT22;9574;47.282;9.640;2022-10-31T06:17:20;9.50;99.90
18884;DHT22;9574;47.282;9.640;2022-10-31T06:19:47;9.20;99.90
18884;DHT22;9574;47.282;9.640;2022-10-31T06:22:16;9.30;99.90
18884;DHT22;9574;47.282;9.640;2022-10-31T06:24:43;9.40;99.90
18884;DHT22;9574;47.282;9.640;2022-10-31T06:27:09;9.30;99.90
18884;DHT22;9574;47.282;9.640;2022-10-31T06:29:36;9.20;99.90
18884;DHT22;9574;47.282;9.640;2022-10-31T06:32:04;9.10;99.90
18884;DHT22;9574;47.282;9.640;2022-10-31T06:34:31;9.10;99.90
18884;DHT22;9574;47.282;9.640;2022-10-31T06:36:58;9.20;99.90
18884;DHT22;9574;47.282;9.640;2022-10-31T06:39:26;9.20;99.90
18884;DHT22;9574;47.282;9.640;2022-10-31T06:41:53;9.30;99.90
18884;DHT22;9574;47.282;9.640;2022-10-31T06:44:20;9.40;99.90
18884;DHT22;9574;47.282;9.640;2022-10-31T06:46:47;9.50;99.90
18884;DHT22;9574;47.282;9.640;2022-10-31T06:49:14;9.90;99.90
18884;DHT22;9574;47.282;9.640;2022-10-31T06:51:41;9.90;99.90
18884;DHT22;9574;47.282;9.640;2022-10-31T06:54:08;10.20;99.90
18884;DHT22;9574;47.282;9.640;2022-10-31T06:56:37;9.90;99.90
18884;DHT22;9574;47.282;9.640;2022-10-31T06:59:04;9.80;99.90
18884;DHT22;9574;47.282;9.640;2022-10-31T07:01:31;9.70;99.90
18884;DHT22;9574;47.282;9.640;2022-10-31T07:03:58;9.60;99.90
18884;DHT22;9574;47.282;9.640;2022-10-31T07:06:25;9.60;99.90
18884;DHT22;9574;47.282;9.640;2022-10-31T07:08:52;9.60;99.90
18884;DHT22;9574;47.282;9.640;2022-10-31T07:11:19;9.60;99.90
18884;DHT22;9574;47.282;9.640;2022-10-31T07:13:47;9.70;99.90
18884;DHT22;9574;47.282;9.640;2022-10-31T07:16:14;9.80;99.90
18884;DHT22;9574;47.282;9.640;2022-10-31T07:18:41;9.90;99.90
18884;DHT22;9574;47.282;9.640;2022-10-31T07:21:08;10.20;99.90
18884;DHT22;9574;47.282;9.640;2022-10-31T07:23:35;10.80;99.90
18884;DHT22;9574;47.282;9.640;2022-10-31T07:26:03;11.30;99.90
18884;DHT22;9574;47.282;9.640;2022-10-31T07:28:30;11.60;99.90
18884;DHT22;9574;47.282;9.640;2022-10-31T07:30:58;11.60;99.90
18884;DHT22;9574;47.282;9.640;2022-10-31T07:33:25;11.50;99.90
18884;DHT22;9574;47.282;9.640;2022-10-31T07:35:53;11.50;99.90
18884;DHT22;9574;47.282;9.640;2022-10-31T07:38:20;11.90;99.90
18884;DHT22;9574;47.282;9.640;2022-10-31T07:40:50;11.90;99.90
18884;DHT22;9574;47.282;9.640;2022-10-31T07:43:18;11.80;99.90
18884;DHT22;9574;47.282;9.640;2022-10-31T07:45:49;12.10;99.90
18884;DHT22;9574;47.282;9.640;2022-10-31T07:48:19;12.40;99.90
18884;DHT22;9574;47.282;9.640;2022-10-31T07:50:46;13.00;99.90
18884;DHT22;9574;47.282;9.640;2022-10-31T07:53:14;13.30;99.90
18884;DHT22;9574;47.282;9.640;2022-10-31T07:55:42;13.50;99.90
18884;DHT22;9574;47.282;9.640;2022-10-31T07:58:11;13.90;99.90
18884;DHT22;9574;47.282;9.640;2022-10-31T08:00:41;14.10;99.90
18884;DHT22;9574;47.282;9.640;2022-10-31T08:03:09;14.10;99.90
18884;DHT22;9574;47.282;9.640;2022-10-31T08:05:38;14.50;99.90
18884;DHT22;9574;47.282;9.640;2022-10-31T08:08:06;14.20;99.90
18884;DHT22;9574;47.282;9.640;2022-10-31T08:10:34;14.30;99.90
18884;DHT22;9574;47.282;9.640;2022-10-31T08:13:03;14.40;99.90
18884;DHT22;9574;47.282;9.640;2022-10-31T08:15:30;14.60;99.90
18884;DHT22;9574;47.282;9.640;2022-10-31T08:17:57;14.50;99.90
18884;DHT22;9574;47.282;9.640;2022-10-31T08:20:24;14.90;99.90
18884;DHT22;9574;47.282;9.640;2022-10-31T08:22:57;14.90;99.90
18884;DHT22;9574;47.282;9.640;2022-10-31T08:25:25;15.00;99.90
18884;DHT22;9574;47.282;9.640;2022-10-31T08:27:54;15.20;99.90
18884;DHT22;9574;47.282;9.640;2022-10-31T08:30:22;15.70;99.90
18884;DHT22;9574;47.282;9.640;2022-10-31T08:32:57;15.80;99.90
18884;DHT22;9574;47.282;9.640;2022-10-31T08:35:24;16.10;99.90
18884;DHT22;9574;47.282;9.640;2022-10-31T08:37:52;16.40;99.90
18884;DHT22;9574;47.282;9.640;2022-10-31T08:40:22;16.60;99.90
18884;DHT22;9574;47.282;9.640;2022-10-31T08:42:56;16.50;99.90
18884;DHT22;9574;47.282;9.640;2022-10-31T08:45:23;16.60;99.90
18884;DHT22;9574;47.282;9.640;2022-10-31T08:47:50;16.80;99.90
18884;DHT22;9574;47.282;9.640;2022-10-31T08:50:17;17.00;99.90
18884;DHT22;9574;47.282;9.640;2022-10-31T08:52:44;17.20;99.90
18884;DHT22;9574;47.282;9.640;2022-10-31T08:55:11;17.30;99.90
18884;DHT22;9574;47.282;9.640;2022-10-31T08:57:40;17.50;99.90
18884;DHT22;9574;47.282;9.640;2022-10-31T09:00:08;17.90;99.90
18884;DHT22;9574;47.282;9.640;2022-10-31T09:02:35;18.10;99.90
18884;DHT22;9574;47.282;9.640;2022-10-31T09:05:02;18.40;99.90
18884;DHT22;9574;47.282;9.640;2022-10-31T09:07:30;18.60;99.90
18884;DHT22;9574;47.282;9.640;2022-10-31T09:09:56;18.60;99.90
18884;DHT22;9574;47.282;9.640;2022-10-31T09:12:23;18.80;99.90
18884;DHT22;9574;47.282;9.640;2022-10-31T09:14:52;18.80;99.90
18884;DHT22;9574;47.282;9.640;2022-10-31T09:17:19;18.80;99.90
18884;DHT22;9574;47.282;9.640;2022-10-31T09:19:45;18.80;99.90
18884;DHT22;9574;47.282;9.640;2022-10-31T09:22:12;18.80;99.90
18884;DHT22;9574;47.282;9.640;2022-10-31T09:24:40;18.80;99.90
18884;DHT22;9574;47.282;9.640;2022-10-31T09:27:07;18.70;99.90
18884;DHT22;9574;47.282;9.640;2022-10-31T09:29:34;18.70;99.90
18884;DHT22;9574;47.282;9.640;2022-10-31T09:32:03;18.90;99.90
18884;DHT22;9574;47.282;9.640;2022-10-31T09:34:30;19.00;99.90
18884;DHT22;9574;47.282;9.640;2022-10-31T09:36:57;19.10;99.90
18884;DHT22;9574;47.282;9.640;2022-10-31T09:39:24;19.30;99.90
18884;DHT22;9574;47.282;9.640;2022-10-31T09:44:46;19.50;99.90
18884;DHT22;9574;47.282;9.640;2022-10-31T09:47:22;19.40;99.90
18884;DHT22;9574;47.282;9.640;2022-10-31T09:50:05;19.50;99.90
18884;DHT22;9574;47.282;9.640;2022-10-31T09:52:36;19.60;99.90
18884;DHT22;9574;47.282;9.640;2022-10-31T09:55:13;19.30;99.90
18884;DHT22;9574;47.282;9.640;2022-10-31T09:57:43;19.20;99.90
18884;DHT22;9574;47.282;9.640;2022-10-31T10:00:16;19.10;99.90
18884;DHT22;9574;47.282;9.640;2022-10-31T10:02:47;18.90;99.90
18884;DHT22;9574;47.282;9.640;2022-10-31T10:05:19;19.10;99.90
18884;DHT22;9574;47.282;9.640;2022-10-31T10:07:54;19.00;99.90
18884;DHT22;9574;47.282;9.640;2022-10-31T10:10:28;19.20;99.90
18884;DHT22;9574;47.282;9.640;2022-10-31T10:13:10;19.60;99.90
18884;DHT22;9574;47.282;9.640;2022-10-31T10:15:56;19.70;99.90
18884;DHT22;9574;47.282;9.640;2022-10-31T10:18:33;19.80;99.90
18884;DHT22;9574;47.282;9.640;2022-10-31T10:21:13;19.80;99.90
18884;DHT22;9574;47.282;9.640;2022-10-31T10:23:51;19.70;99.90
18884;DHT22;9574;47.282;9.640;2022-10-31T10:26:27;19.70;99.90
18884;DHT22;9574;47.282;9.640;2022-10-31T10:28:58;19.80;99.90
18884;DHT22;9574;47.282;9.640;2022-10-31T10:31:29;20.00;99.90
18884;DHT22;9574;47.282;9.640;2022-10-31T10:34:02;20.20;99.90
18884;DHT22;9574;47.282;9.640;2022-10-31T10:36:37;20.30;99.90
18884;DHT22;9574;47.282;9.640;2022-10-31T10:39:14;20.40;99.90
18884;DHT22;9574;47.282;9.640;2022-10-31T10:41:46;20.40;99.90
18884;DHT22;9574;47.282;9.640;2022-10-31T10:44:28;20.30;99.90
18884;DHT22;9574;47.282;9.640;2022-10-31T10:47:12;20.30;99.90
18884;DHT22;9574;47.282;9.640;2022-10-31T10:49:58;20.20;99.90
18884;DHT22;9574;47.282;9.640;2022-10-31T10:52:32;20.00;99.90
18884;DHT22;9574;47.282;9.640;2022-10-31T10:55:10;20.00;99.90
18884;DHT22;9574;47.282;9.640;2022-10-31T10:57:52;20.10;99.90
18884;DHT22;9574;47.282;9.640;2022-10-31T11:00:23;20.20;99.90
18884;DHT22;9574;47.282;9.640;2022-10-31T11:02:51;20.20;99.90
18884;DHT22;9574;47.282;9.640;2022-10-31T11:05:30;20.10;99.90
18884;DHT22;9574;47.282;9.640;2022-10-31T11:07:59;20.10;99.90
18884;DHT22;9574;47.282;9.640;2022-10-31T11:10:26;20.10;99.90
18884;DHT22;9574;47.282;9.640;2022-10-31T11:13:04;20.00;99.90
18884;DHT22;9574;47.282;9.640;2022-10-31T11:15:35;19.90;99.90
18884;DHT22;9574;47.282;9.640;2022-10-31T11:18:03;19.70;99.90
18884;DHT22;9574;47.282;9.640;2022-10-31T11:20:34;19.20;99.90
18884;DHT22;9574;47.282;9.640;2022-10-31T11:23:04;18.50;99.90
18884;DHT22;9574;47.282;9.640;2022-10-31T11:25:32;17.90;99.90
18884;DHT22;9574;47.282;9.640;2022-10-31T11:28:00;17.20;99.90
18884;DHT22;9574;47.282;9.640;2022-10-31T11:30:42;16.80;99.90
18884;DHT22;9574;47.282;9.640;2022-10-31T11:33:16;16.60;99.90
18884;DHT22;9574;47.282;9.640;2022-10-31T11:35:46;16.30;99.90
18884;DHT22;9574;47.282;9.640;2022-10-31T11:38:18;16.20;99.90
18884;DHT22;9574;47.282;9.640;2022-10-31T11:41:00;16.10;99.90
18884;DHT22;9574;47.282;9.640;2022-10-31T11:43:32;16.10;99.90
18884;DHT22;9574;47.282;9.640;2022-10-31T11:45:59;16.10;99.90
18884;DHT22;9574;47.282;9.640;2022-10-31T11:48:26;16.00;99.90
18884;DHT22;9574;47.282;9.640;2022-10-31T11:50:56;16.00;99.90
18884;DHT22;9574;47.282;9.640;2022-10-31T11:53:27;15.80;99.90
18884;DHT22;9574;47.282;9.640;2022-10-31T11:56:04;15.80;99.90
18884;DHT22;9574;47.282;9.640;2022-10-31T11:58:31;15.60;99.90
18884;DHT22;9574;47.282;9.640;2022-10-31T12:00:58;15.60;99.90
18884;DHT22;9574;47.282;9.640;2022-10-31T12:03:43;15.40;99.90
18884;DHT22;9574;47.282;9.640;2022-10-31T12:06:21;15.30;99.90
18884;DHT22;9574;47.282;9.640;2022-10-31T12:08:51;15.30;99.90
18884;DHT22;9574;47.282;9.640;2022-10-31T12:11:33;15.30;99.90
18884;DHT22;9574;47.282;9.640;2022-10-31T12:14:12;15.40;99.90
18884;DHT22;9574;47.282;9.640;2022-10-31T12:16:48;15.50;99.90
18884;DHT22;9574;47.282;9.640;2022-10-31T12:19:23;15.40;99.90
18884;DHT22;9574;47.282;9.640;2022-10-31T12:22:05;15.30;99.90
18884;DHT22;9574;47.282;9.640;2022-10-31T12:24:47;15.20;99.90
18884;DHT22;9574;47.282;9.640;2022-10-31T12:27:23;15.20;99.90
18884;DHT22;9574;47.282;9.640;2022-10-31T12:30:14;15.30;99.90
18884;DHT22;9574;47.282;9.640;2022-10-31T12:33:01;15.30;99.90
18884;DHT22;9574;47.282;9.640;2022-10-31T12:35:51;15.00;99.90
18884;DHT22;9574;47.282;9.640;2022-10-31T12:38:33;14.90;99.90
18884;DHT22;9574;47.282;9.640;2022-10-31T12:41:15;15.00;99.90
18884;DHT22;9574;47.282;9.640;2022-10-31T12:43:55;15.10;99.90
18884;DHT22;9574;47.282;9.640;2022-10-31T12:46:29;15.20;99.90
18884;DHT22;9574;47.282;9.640;2022-10-31T12:49:19;15.20;99.90
18884;DHT22;9574;47.282;9.640;2022-10-31T12:51:57;15.30;99.90
18884;DHT22;9574;47.282;9.640;2022-10-31T12:54:46;15.50;99.90
18884;DHT22;9574;47.282;9.640;2022-10-31T12:57:23;15.70;99.90
18884;DHT22;9574;47.282;9.640;2022-10-31T12:59:59;15.80;99.90
18884;DHT22;9574;47.282;9.640;2022-10-31T13:02:30;15.90;99.90
18884;DHT22;9574;47.282;9.640;2022-10-31T13:05:03;15.80;99.90
18884;DHT22;9574;47.282;9.640;2022-10-31T13:07:37;15.90;99.90
18884;DHT22;9574;47.282;9.640;2022-10-31T13:10:14;15.80;99.90
18884;DHT22;9574;47.282;9.640;2022-10-31T13:12:43;16.00;99.90
18884;DHT22;9574;47.282;9.640;2022-10-31T13:15:16;16.20;99.90
18884;DHT22;9574;47.282;9.640;2022-10-31T13:17:47;16.40;99.90
18884;DHT22;9574;47.282;9.640;2022-10-31T13:20:20;16.60;99.90
18884;DHT22;9574;47.282;9.640;2022-10-31T13:22:50;16.70;99.90
18884;DHT22;9574;47.282;9.640;2022-10-31T13:25:23;16.90;99.90
18884;DHT22;9574;47.282;9.640;2022-10-31T13:27:54;17.20;99.90
18884;DHT22;9574;47.282;9.640;2022-10-31T13:30:23;17.40;99.90
18884;DHT22;9574;47.282;9.640;2022-10-31T13:32:54;17.70;99.90
18884;DHT22;9574;47.282;9.640;2022-10-31T13:35:26;17.60;99.90
18884;DHT22;9574;47.282;9.640;2022-10-31T13:38:21;17.40;99.90
18884;DHT22;9574;47.282;9.640;2022-10-31T13:40:55;17.30;99.90
18884;DHT22;9574;47.282;9.640;2022-10-31T13:43:31;17.10;99.90
18884;DHT22;9574;47.282;9.640;2022-10-31T13:45:59;17.00;99.90
18884;DHT22;9574;47.282;9.640;2022-10-31T13:48:38;17.00;99.90
18884;DHT22;9574;47.282;9.640;2022-10-31T13:51:09;16.90;99.90
18884;DHT22;9574;47.282;9.640;2022-10-31T13:53:39;16.80;99.90
18884;DHT22;9574;47.282;9.640;2022-10-31T13:56:20;16.90;99.90
18884;DHT22;9574;47.282;9.640;2022-10-31T13:59:02;17.10;99.90
18884;DHT22;9574;47.282;9.640;2022-10-31T14:01:30;17.20;99.90
18884;DHT22;9574;47.282;9.640;2022-10-31T14:04:01;17.50;99.90
18884;DHT22;9574;47.282;9.640;2022-10-31T14:06:48;17.80;99.90
18884;DHT22;9574;47.282;9.640;2022-10-31T14:09:29;18.00;99.90
18884;DHT22;9574;47.282;9.640;2022-10-31T14:12:01;18.30;99.90
18884;DHT22;9574;47.282;9.640;2022-10-31T14:14:34;18.20;99.90
18884;DHT22;9574;47.282;9.640;2022-10-31T14:17:02;18.20;99.90
18884;DHT22;9574;47.282;9.640;2022-10-31T14:19:29;18.30;99.90
18884;DHT22;9574;47.282;9.640;2022-10-31T14:21:56;18.40;99.90
18884;DHT22;9574;47.282;9.640;2022-10-31T14:24:35;18.60;99.90
18884;DHT22;9574;47.282;9.640;2022-10-31T14:27:43;18.60;99.90
18884;DHT22;9574;47.282;9.640;2022-10-31T14:30:19;18.80;99.90
18884;DHT22;9574;47.282;9.640;2022-10-31T14:32:51;18.50;99.90
18884;DHT22;9574;47.282;9.640;2022-10-31T14:35:21;18.40;99.90
18884;DHT22;9574;47.282;9.640;2022-10-31T14:40:58;18.40;99.90
18884;DHT22;9574;47.282;9.640;2022-10-31T14:43:39;18.50;99.90
18884;DHT22;9574;47.282;9.640;2022-10-31T14:46:17;18.70;99.90
18884;DHT22;9574;47.282;9.640;2022-10-31T14:51:39;18.10;99.90
18884;DHT22;9574;47.282;9.640;2022-10-31T14:54:13;18.00;99.90
18884;DHT22;9574;47.282;9.640;2022-10-31T14:56:46;18.20;99.90
18884;DHT22;9574;47.282;9.640;2022-10-31T14:59:19;17.90;99.90
18884;DHT22;9574;47.282;9.640;2022-10-31T15:01:54;18.10;99.90
18884;DHT22;9574;47.282;9.640;2022-10-31T15:04:24;18.40;99.90
18884;DHT22;9574;47.282;9.640;2022-10-31T15:06:57;18.60;99.90
18884;DHT22;9574;47.282;9.640;2022-10-31T15:09:27;18.20;99.90
18884;DHT22;9574;47.282;9.640;2022-10-31T15:11:55;17.90;99.90
18884;DHT22;9574;47.282;9.640;2022-10-31T15:14:26;17.50;99.90
18884;DHT22;9574;47.282;9.640;2022-10-31T15:16:55;17.30;99.90
18884;DHT22;9574;47.282;9.640;2022-10-31T15:19:25;17.30;99.90
18884;DHT22;9574;47.282;9.640;2022-10-31T15:21:53;17.30;99.90
18884;DHT22;9574;47.282;9.640;2022-10-31T15:24:23;17.30;99.90
18884;DHT22;9574;47.282;9.640;2022-10-31T15:26:52;17.30;99.90
18884;DHT22;9574;47.282;9.640;2022-10-31T15:29:22;17.10;99.90
18884;DHT22;9574;47.282;9.640;2022-10-31T15:31:51;16.80;99.90
18884;DHT22;9574;47.282;9.640;2022-10-31T15:34:22;16.40;99.90
18884;DHT22;9574;47.282;9.640;2022-10-31T15:36:52;16.20;99.90
18884;DHT22;9574;47.282;9.640;2022-10-31T15:39:19;16.30;99.90
18884;DHT22;9574;47.282;9.640;2022-10-31T15:41:50;16.00;99.90
18884;DHT22;9574;47.282;9.640;2022-10-31T15:44:21;15.80;99.90
18884;DHT22;9574;47.282;9.640;2022-10-31T15:46:55;15.90;99.90
18884;DHT22;9574;47.282;9.640;2022-10-31T15:49:31;15.90;99.90
18884;DHT22;9574;47.282;9.640;2022-10-31T15:52:04;15.60;99.90
18884;DHT22;9574;47.282;9.640;2022-10-31T15:54:32;15.50;99.90
18884;DHT22;9574;47.282;9.640;2022-10-31T15:56:59;15.50;99.90
18884;DHT22;9574;47.282;9.640;2022-10-31T15:59:27;15.30;99.90
18884;DHT22;9574;47.282;9.640;2022-10-31T16:02:10;15.20;99.90
18884;DHT22;9574;47.282;9.640;2022-10-31T16:04:48;15.00;99.90
18884;DHT22;9574;47.282;9.640;2022-10-31T16:07:17;14.80;99.90
18884;DHT22;9574;47.282;9.640;2022-10-31T16:09:55;14.60;99.90
18884;DHT22;9574;47.282;9.640;2022-10-31T16:12:24;14.50;99.90
18884;DHT22;9574;47.282;9.640;2022-10-31T16:14:53;14.40;99.90
18884;DHT22;9574;47.282;9.640;2022-10-31T16:17:24;14.50;99.90
18884;DHT22;9574;47.282;9.640;2022-10-31T16:19:56;14.40;99.90
18884;DHT22;9574;47.282;9.640;2022-10-31T16:22:26;14.60;99.90
18884;DHT22;9574;47.282;9.640;2022-10-31T16:24:58;14.80;99.90
18884;DHT22;9574;47.282;9.640;2022-10-31T16:27:28;14.60;99.90